Terminal Aerodrome Forecast
Issued by NWS

Home | Current Version | Previous Version | Text Only | Print | Product List | Glossary On
Versions: 1 2 3 4 5 6 7 8 9 10 11 12 13 14 15 16 17
918
FTUS46 KMTR 261738
TAFOAK
TAF
KOAK 261738Z 2618/2724 18006KT P6SM OVC017
     FM261900 30012KT P6SM FEW013
     FM270400 30010KT P6SM BKN013
     FM270700 26005KT P6SM OVC007
     FM271800 28007KT P6SM OVC015
     FM272100 30012KT P6SM FEW015=

USA.gov is the U.S. government's official web portal to all federal, state and local government web resources and services.